sensor_id;sensor_type;location;lat;lon;timestamp;temperature;humidity
27224;DHT22;14965;50.660;13.226;2023-11-21T00:01:07;5.90;99.90
27224;DHT22;14965;50.660;13.226;2023-11-21T00:03:33;5.90;99.90
27224;DHT22;14965;50.660;13.226;2023-11-21T00:05:59;5.90;99.90
27224;DHT22;14965;50.660;13.226;2023-11-21T00:08:25;5.90;99.90
27224;DHT22;14965;50.660;13.226;2023-11-21T00:10:51;6.00;99.90
27224;DHT22;14965;50.660;13.226;2023-11-21T00:13:17;6.00;99.90
27224;DHT22;14965;50.660;13.226;2023-11-21T00:15:42;6.00;99.90
27224;DHT22;14965;50.660;13.226;2023-11-21T00:18:10;6.00;99.90
27224;DHT22;14965;50.660;13.226;2023-11-21T00:20:36;6.00;99.90
27224;DHT22;14965;50.660;13.226;2023-11-21T00:23:02;6.00;99.90
27224;DHT22;14965;50.660;13.226;2023-11-21T00:25:27;6.10;99.90
27224;DHT22;14965;50.660;13.226;2023-11-21T00:27:53;6.10;99.90
27224;DHT22;14965;50.660;13.226;2023-11-21T00:30:19;6.10;99.90
27224;DHT22;14965;50.660;13.226;2023-11-21T00:32:45;6.10;99.90
27224;DHT22;14965;50.660;13.226;2023-11-21T00:35:13;6.10;99.90
27224;DHT22;14965;50.660;13.226;2023-11-21T00:37:39;6.10;99.90
27224;DHT22;14965;50.660;13.226;2023-11-21T00:40:06;6.10;99.90
27224;DHT22;14965;50.660;13.226;2023-11-21T00:42:32;6.10;99.90
27224;DHT22;14965;50.660;13.226;2023-11-21T00:44:58;6.10;99.90
27224;DHT22;14965;50.660;13.226;2023-11-21T00:47:24;6.20;99.90
27224;DHT22;14965;50.660;13.226;2023-11-21T00:49:50;6.10;99.90
27224;DHT22;14965;50.660;13.226;2023-11-21T00:52:17;6.10;99.90
27224;DHT22;14965;50.660;13.226;2023-11-21T00:54:43;6.10;99.90
27224;DHT22;14965;50.660;13.226;2023-11-21T00:57:09;6.10;99.90
27224;DHT22;14965;50.660;13.226;2023-11-21T00:59:35;6.10;99.90
27224;DHT22;14965;50.660;13.226;2023-11-21T01:02:01;6.10;99.90
27224;DHT22;14965;50.660;13.226;2023-11-21T01:04:27;6.10;99.90
27224;DHT22;14965;50.660;13.226;2023-11-21T01:06:53;6.10;99.90
27224;DHT22;14965;50.660;13.226;2023-11-21T01:09:21;6.10;99.90
27224;DHT22;14965;50.660;13.226;2023-11-21T01:11:47;6.10;99.90
27224;DHT22;14965;50.660;13.226;2023-11-21T01:14:13;6.10;99.90
27224;DHT22;14965;50.660;13.226;2023-11-21T01:16:39;6.10;99.90
27224;DHT22;14965;50.660;13.226;2023-11-21T01:19:05;6.10;99.90
27224;DHT22;14965;50.660;13.226;2023-11-21T01:21:31;6.10;99.90
27224;DHT22;14965;50.660;13.226;2023-11-21T01:23:57;6.10;99.90
27224;DHT22;14965;50.660;13.226;2023-11-21T01:26:24;6.20;99.90
27224;DHT22;14965;50.660;13.226;2023-11-21T01:28:50;6.10;99.90
27224;DHT22;14965;50.660;13.226;2023-11-21T01:31:16;6.20;99.90
27224;DHT22;14965;50.660;13.226;2023-11-21T01:33:42;6.20;99.90
27224;DHT22;14965;50.660;13.226;2023-11-21T01:36:09;6.20;99.90
27224;DHT22;14965;50.660;13.226;2023-11-21T01:38:35;6.20;99.90
27224;DHT22;14965;50.660;13.226;2023-11-21T01:41:01;6.20;99.90
27224;DHT22;14965;50.660;13.226;2023-11-21T01:43:29;6.20;99.90
27224;DHT22;14965;50.660;13.226;2023-11-21T01:45:55;6.20;99.90
27224;DHT22;14965;50.660;13.226;2023-11-21T01:48:21;6.20;99.90
27224;DHT22;14965;50.660;13.226;2023-11-21T01:50:47;6.10;99.90
27224;DHT22;14965;50.660;13.226;2023-11-21T01:53:13;6.10;99.90
27224;DHT22;14965;50.660;13.226;2023-11-21T01:55:40;6.20;99.90
27224;DHT22;14965;50.660;13.226;2023-11-21T01:58:07;6.20;99.90
27224;DHT22;14965;50.660;13.226;2023-11-21T02:00:35;6.20;99.90
27224;DHT22;14965;50.660;13.226;2023-11-21T02:03:01;6.20;99.90
27224;DHT22;14965;50.660;13.226;2023-11-21T02:05:27;6.20;99.90
27224;DHT22;14965;50.660;13.226;2023-11-21T02:07:53;6.20;99.90
27224;DHT22;14965;50.660;13.226;2023-11-21T02:10:19;6.20;99.90
27224;DHT22;14965;50.660;13.226;2023-11-21T02:12:45;6.20;99.90
27224;DHT22;14965;50.660;13.226;2023-11-21T02:15:12;6.20;99.90
27224;DHT22;14965;50.660;13.226;2023-11-21T02:17:41;6.20;99.90
27224;DHT22;14965;50.660;13.226;2023-11-21T02:20:08;6.20;99.90
27224;DHT22;14965;50.660;13.226;2023-11-21T02:22:37;6.20;99.90
27224;DHT22;14965;50.660;13.226;2023-11-21T02:25:07;6.20;99.90
27224;DHT22;14965;50.660;13.226;2023-11-21T02:27:33;6.20;99.90
27224;DHT22;14965;50.660;13.226;2023-11-21T02:29:59;6.20;99.90
27224;DHT22;14965;50.660;13.226;2023-11-21T02:32:25;6.20;99.90
27224;DHT22;14965;50.660;13.226;2023-11-21T02:34:51;6.30;99.90
27224;DHT22;14965;50.660;13.226;2023-11-21T02:37:17;6.30;99.90
27224;DHT22;14965;50.660;13.226;2023-11-21T02:39:43;6.20;99.90
27224;DHT22;14965;50.660;13.226;2023-11-21T02:42:10;6.30;99.90
27224;DHT22;14965;50.660;13.226;2023-11-21T02:44:36;6.30;99.90
27224;DHT22;14965;50.660;13.226;2023-11-21T02:47:02;6.30;99.90
27224;DHT22;14965;50.660;13.226;2023-11-21T02:49:28;6.30;99.90
27224;DHT22;14965;50.660;13.226;2023-11-21T02:51:54;6.30;99.90
27224;DHT22;14965;50.660;13.226;2023-11-21T02:54:20;6.30;99.90
27224;DHT22;14965;50.660;13.226;2023-11-21T02:56:47;6.40;99.90
27224;DHT22;14965;50.660;13.226;2023-11-21T02:59:14;6.40;99.90
27224;DHT22;14965;50.660;13.226;2023-11-21T03:01:40;6.40;99.90
27224;DHT22;14965;50.660;13.226;2023-11-21T03:04:06;6.30;99.90
27224;DHT22;14965;50.660;13.226;2023-11-21T03:06:32;6.30;99.90
27224;DHT22;14965;50.660;13.226;2023-11-21T03:08:57;6.30;99.90
27224;DHT22;14965;50.660;13.226;2023-11-21T03:11:23;6.20;99.90
27224;DHT22;14965;50.660;13.226;2023-11-21T03:13:49;6.30;99.90
27224;DHT22;14965;50.660;13.226;2023-11-21T03:16:17;6.30;99.90
27224;DHT22;14965;50.660;13.226;2023-11-21T03:18:44;6.30;99.90
27224;DHT22;14965;50.660;13.226;2023-11-21T03:21:10;6.30;99.90
27224;DHT22;14965;50.660;13.226;2023-11-21T03:23:36;6.20;99.90
27224;DHT22;14965;50.660;13.226;2023-11-21T03:26:02;6.30;99.90
27224;DHT22;14965;50.660;13.226;2023-11-21T03:28:28;6.30;99.90
27224;DHT22;14965;50.660;13.226;2023-11-21T03:30:54;6.30;99.90
27224;DHT22;14965;50.660;13.226;2023-11-21T03:33:22;6.30;99.90
27224;DHT22;14965;50.660;13.226;2023-11-21T03:35:48;6.30;99.90
27224;DHT22;14965;50.660;13.226;2023-11-21T03:38:14;6.20;99.90
27224;DHT22;14965;50.660;13.226;2023-11-21T03:40:40;6.20;99.90
27224;DHT22;14965;50.660;13.226;2023-11-21T03:43:06;6.20;99.90
27224;DHT22;14965;50.660;13.226;2023-11-21T03:45:32;6.20;99.90
27224;DHT22;14965;50.660;13.226;2023-11-21T03:47:58;6.20;99.90
27224;DHT22;14965;50.660;13.226;2023-11-21T03:50:25;6.20;99.90
27224;DHT22;14965;50.660;13.226;2023-11-21T03:52:51;6.20;99.90
27224;DHT22;14965;50.660;13.226;2023-11-21T03:55:17;6.20;99.90
27224;DHT22;14965;50.660;13.226;2023-11-21T03:57:43;6.20;99.90
27224;DHT22;14965;50.660;13.226;2023-11-21T04:00:10;6.10;99.90
27224;DHT22;14965;50.660;13.226;2023-11-21T04:02:36;6.10;99.90
27224;DHT22;14965;50.660;13.226;2023-11-21T04:05:03;6.10;99.90
27224;DHT22;14965;50.660;13.226;2023-11-21T04:07:30;6.00;99.90
27224;DHT22;14965;50.660;13.226;2023-11-21T04:09:56;6.00;99.90
27224;DHT22;14965;50.660;13.226;2023-11-21T04:12:22;6.10;99.90
27224;DHT22;14965;50.660;13.226;2023-11-21T04:14:48;6.10;99.90
27224;DHT22;14965;50.660;13.226;2023-11-21T04:17:17;6.10;99.90
27224;DHT22;14965;50.660;13.226;2023-11-21T04:19:44;6.10;99.90
27224;DHT22;14965;50.660;13.226;2023-11-21T04:22:10;6.10;99.90
27224;DHT22;14965;50.660;13.226;2023-11-21T04:24:37;6.10;99.90
27224;DHT22;14965;50.660;13.226;2023-11-21T04:27:03;6.10;99.90
27224;DHT22;14965;50.660;13.226;2023-11-21T04:29:29;6.10;99.90
27224;DHT22;14965;50.660;13.226;2023-11-21T04:31:55;6.10;99.90
27224;DHT22;14965;50.660;13.226;2023-11-21T04:34:21;6.10;99.90
27224;DHT22;14965;50.660;13.226;2023-11-21T04:36:47;6.00;99.90
27224;DHT22;14965;50.660;13.226;2023-11-21T04:39:13;6.00;99.90
27224;DHT22;14965;50.660;13.226;2023-11-21T04:41:41;6.00;99.90
27224;DHT22;14965;50.660;13.226;2023-11-21T04:44:07;6.10;99.90
27224;DHT22;14965;50.660;13.226;2023-11-21T04:46:33;6.10;99.90
27224;DHT22;14965;50.660;13.226;2023-11-21T04:48:59;6.10;99.90
27224;DHT22;14965;50.660;13.226;2023-11-21T04:51:24;6.10;99.90
27224;DHT22;14965;50.660;13.226;2023-11-21T04:53:50;6.10;99.90
27224;DHT22;14965;50.660;13.226;2023-11-21T04:56:16;6.10;99.90
27224;DHT22;14965;50.660;13.226;2023-11-21T04:58:44;6.00;99.90
27224;DHT22;14965;50.660;13.226;2023-11-21T05:01:10;6.00;99.90
27224;DHT22;14965;50.660;13.226;2023-11-21T05:03:36;5.90;99.90
27224;DHT22;14965;50.660;13.226;2023-11-21T05:06:02;5.90;99.90
27224;DHT22;14965;50.660;13.226;2023-11-21T05:08:28;5.90;99.90
27224;DHT22;14965;50.660;13.226;2023-11-21T05:10:54;5.90;99.90
27224;DHT22;14965;50.660;13.226;2023-11-21T05:13:20;6.00;99.90
27224;DHT22;14965;50.660;13.226;2023-11-21T05:15:47;6.00;99.90
27224;DHT22;14965;50.660;13.226;2023-11-21T05:18:13;6.00;99.90
27224;DHT22;14965;50.660;13.226;2023-11-21T05:20:39;6.00;99.90
27224;DHT22;14965;50.660;13.226;2023-11-21T05:23:05;6.00;99.90
27224;DHT22;14965;50.660;13.226;2023-11-21T05:25:31;6.00;99.90
27224;DHT22;14965;50.660;13.226;2023-11-21T05:27:57;6.00;99.90
27224;DHT22;14965;50.660;13.226;2023-11-21T05:30:23;6.00;99.90
27224;DHT22;14965;50.660;13.226;2023-11-21T05:32:51;6.00;99.90
27224;DHT22;14965;50.660;13.226;2023-11-21T05:35:17;6.00;99.90
27224;DHT22;14965;50.660;13.226;2023-11-21T05:37:43;6.00;99.90
27224;DHT22;14965;50.660;13.226;2023-11-21T05:40:10;6.00;99.90
27224;DHT22;14965;50.660;13.226;2023-11-21T05:42:36;6.10;99.90
27224;DHT22;14965;50.660;13.226;2023-11-21T05:45:02;6.10;99.90
27224;DHT22;14965;50.660;13.226;2023-11-21T05:47:29;6.10;99.90
27224;DHT22;14965;50.660;13.226;2023-11-21T05:49:56;6.10;99.90
27224;DHT22;14965;50.660;13.226;2023-11-21T05:52:22;6.10;99.90
27224;DHT22;14965;50.660;13.226;2023-11-21T05:54:48;6.10;99.90
27224;DHT22;14965;50.660;13.226;2023-11-21T05:57:14;6.20;99.90
27224;DHT22;14965;50.660;13.226;2023-11-21T05:59:40;6.10;99.90
27224;DHT22;14965;50.660;13.226;2023-11-21T06:02:06;6.00;99.90
27224;DHT22;14965;50.660;13.226;2023-11-21T06:04:32;6.00;99.90
27224;DHT22;14965;50.660;13.226;2023-11-21T06:06:59;5.90;99.90
27224;DHT22;14965;50.660;13.226;2023-11-21T06:09:25;5.90;99.90
27224;DHT22;14965;50.660;13.226;2023-11-21T06:11:51;5.90;99.90
27224;DHT22;14965;50.660;13.226;2023-11-21T06:14:17;5.90;99.90
27224;DHT22;14965;50.660;13.226;2023-11-21T06:16:43;5.80;99.90
27224;DHT22;14965;50.660;13.226;2023-11-21T06:19:09;5.90;99.90
27224;DHT22;14965;50.660;13.226;2023-11-21T06:21:35;5.90;99.90
27224;DHT22;14965;50.660;13.226;2023-11-21T06:24:02;5.90;99.90
27224;DHT22;14965;50.660;13.226;2023-11-21T06:26:28;5.90;99.90
27224;DHT22;14965;50.660;13.226;2023-11-21T06:28:54;5.90;99.90
27224;DHT22;14965;50.660;13.226;2023-11-21T06:31:20;5.90;99.90
27224;DHT22;14965;50.660;13.226;2023-11-21T06:33:46;5.90;99.90
27224;DHT22;14965;50.660;13.226;2023-11-21T06:36:12;5.90;99.90
27224;DHT22;14965;50.660;13.226;2023-11-21T06:38:38;5.90;99.90
27224;DHT22;14965;50.660;13.226;2023-11-21T06:41:06;5.90;99.90
27224;DHT22;14965;50.660;13.226;2023-11-21T06:43:32;5.90;99.90
27224;DHT22;14965;50.660;13.226;2023-11-21T06:45:58;6.00;99.90
27224;DHT22;14965;50.660;13.226;2023-11-21T06:48:23;6.00;99.90
27224;DHT22;14965;50.660;13.226;2023-11-21T06:50:49;6.00;99.90
27224;DHT22;14965;50.660;13.226;2023-11-21T06:53:15;6.00;99.90
27224;DHT22;14965;50.660;13.226;2023-11-21T06:55:41;6.10;99.90
27224;DHT22;14965;50.660;13.226;2023-11-21T06:58:08;6.10;99.90
27224;DHT22;14965;50.660;13.226;2023-11-21T07:00:34;6.10;99.90
27224;DHT22;14965;50.660;13.226;2023-11-21T07:03:00;6.10;99.90
27224;DHT22;14965;50.660;13.226;2023-11-21T07:05:26;6.10;99.90
27224;DHT22;14965;50.660;13.226;2023-11-21T07:07:52;6.10;99.90
27224;DHT22;14965;50.660;13.226;2023-11-21T07:10:18;6.10;99.90
27224;DHT22;14965;50.660;13.226;2023-11-21T07:12:44;6.00;99.90
27224;DHT22;14965;50.660;13.226;2023-11-21T07:15:11;6.00;99.90
27224;DHT22;14965;50.660;13.226;2023-11-21T07:17:37;6.00;99.90
27224;DHT22;14965;50.660;13.226;2023-11-21T07:20:04;6.00;99.90
27224;DHT22;14965;50.660;13.226;2023-11-21T07:22:31;6.00;99.90
27224;DHT22;14965;50.660;13.226;2023-11-21T07:24:57;6.10;99.90
27224;DHT22;14965;50.660;13.226;2023-11-21T07:27:22;6.00;99.90
27224;DHT22;14965;50.660;13.226;2023-11-21T07:29:48;6.10;99.90
27224;DHT22;14965;50.660;13.226;2023-11-21T07:32:16;6.20;99.90
27224;DHT22;14965;50.660;13.226;2023-11-21T07:34:42;6.20;99.90
27224;DHT22;14965;50.660;13.226;2023-11-21T07:37:08;6.20;99.90
27224;DHT22;14965;50.660;13.226;2023-11-21T07:39:34;6.20;99.90
27224;DHT22;14965;50.660;13.226;2023-11-21T07:42:00;6.20;99.90
27224;DHT22;14965;50.660;13.226;2023-11-21T07:44:26;6.30;99.90
27224;DHT22;14965;50.660;13.226;2023-11-21T07:46:51;6.30;99.90
27224;DHT22;14965;50.660;13.226;2023-11-21T07:49:19;6.30;99.90
27224;DHT22;14965;50.660;13.226;2023-11-21T07:51:45;6.30;99.90
27224;DHT22;14965;50.660;13.226;2023-11-21T07:54:11;6.40;99.90
27224;DHT22;14965;50.660;13.226;2023-11-21T07:56:37;6.50;99.90
27224;DHT22;14965;50.660;13.226;2023-11-21T07:59:03;6.50;99.90
27224;DHT22;14965;50.660;13.226;2023-11-21T08:01:29;6.50;99.90
27224;DHT22;14965;50.660;13.226;2023-11-21T08:03:55;6.50;99.90
27224;DHT22;14965;50.660;13.226;2023-11-21T08:06:22;6.60;99.90
27224;DHT22;14965;50.660;13.226;2023-11-21T08:08:48;6.70;99.90
27224;DHT22;14965;50.660;13.226;2023-11-21T08:11:14;6.70;99.90
27224;DHT22;14965;50.660;13.226;2023-11-21T08:13:40;6.60;99.90
27224;DHT22;14965;50.660;13.226;2023-11-21T08:16:07;6.60;99.90
27224;DHT22;14965;50.660;13.226;2023-11-21T08:18:33;6.60;99.90
27224;DHT22;14965;50.660;13.226;2023-11-21T08:20:59;6.50;99.90
27224;DHT22;14965;50.660;13.226;2023-11-21T08:23:27;6.60;99.90
27224;DHT22;14965;50.660;13.226;2023-11-21T08:25:53;6.50;99.90
27224;DHT22;14965;50.660;13.226;2023-11-21T08:28:19;6.50;99.90
27224;DHT22;14965;50.660;13.226;2023-11-21T08:30:45;6.50;99.90
27224;DHT22;14965;50.660;13.226;2023-11-21T08:33:12;6.50;99.90
27224;DHT22;14965;50.660;13.226;2023-11-21T08:35:38;6.50;99.90
27224;DHT22;14965;50.660;13.226;2023-11-21T08:38:04;6.50;99.90
27224;DHT22;14965;50.660;13.226;2023-11-21T08:40:31;6.50;99.90
27224;DHT22;14965;50.660;13.226;2023-11-21T08:42:57;6.50;99.90
27224;DHT22;14965;50.660;13.226;2023-11-21T08:45:24;6.40;99.90
27224;DHT22;14965;50.660;13.226;2023-11-21T08:47:50;6.40;99.90
27224;DHT22;14965;50.660;13.226;2023-11-21T08:50:16;6.40;99.90
27224;DHT22;14965;50.660;13.226;2023-11-21T08:52:44;6.30;99.90
27224;DHT22;14965;50.660;13.226;2023-11-21T08:55:10;6.30;99.90
27224;DHT22;14965;50.660;13.226;2023-11-21T08:57:38;6.30;99.90
27224;DHT22;14965;50.660;13.226;2023-11-21T09:00:06;6.30;99.90
27224;DHT22;14965;50.660;13.226;2023-11-21T09:02:33;6.30;99.90
27224;DHT22;14965;50.660;13.226;2023-11-21T09:04:59;6.30;99.90
27224;DHT22;14965;50.660;13.226;2023-11-21T09:07:25;6.30;99.90
27224;DHT22;14965;50.660;13.226;2023-11-21T09:09:51;6.30;99.90
27224;DHT22;14965;50.660;13.226;2023-11-21T09:12:17;6.20;99.90
27224;DHT22;14965;50.660;13.226;2023-11-21T09:14:45;6.20;99.90
27224;DHT22;14965;50.660;13.226;2023-11-21T09:17:12;6.30;99.90
27224;DHT22;14965;50.660;13.226;2023-11-21T09:19:38;6.30;99.90
27224;DHT22;14965;50.660;13.226;2023-11-21T09:22:04;6.20;99.90
27224;DHT22;14965;50.660;13.226;2023-11-21T09:24:30;6.20;99.90
27224;DHT22;14965;50.660;13.226;2023-11-21T09:26:56;6.20;99.90
27224;DHT22;14965;50.660;13.226;2023-11-21T09:29:22;6.20;99.90
27224;DHT22;14965;50.660;13.226;2023-11-21T09:31:50;6.20;99.90
27224;DHT22;14965;50.660;13.226;2023-11-21T09:34:15;6.20;99.90
27224;DHT22;14965;50.660;13.226;2023-11-21T09:36:44;6.20;99.90
27224;DHT22;14965;50.660;13.226;2023-11-21T09:39:10;6.20;99.90
27224;DHT22;14965;50.660;13.226;2023-11-21T09:41:42;6.10;99.90
27224;DHT22;14965;50.660;13.226;2023-11-21T09:44:13;6.10;99.90
27224;DHT22;14965;50.660;13.226;2023-11-21T09:46:43;6.10;99.90
27224;DHT22;14965;50.660;13.226;2023-11-21T09:49:15;6.10;99.90
27224;DHT22;14965;50.660;13.226;2023-11-21T09:51:45;6.10;99.90
27224;DHT22;14965;50.660;13.226;2023-11-21T09:54:15;6.10;99.90
27224;DHT22;14965;50.660;13.226;2023-11-21T09:56:43;6.10;99.90
27224;DHT22;14965;50.660;13.226;2023-11-21T09:59:13;6.10;99.90
27224;DHT22;14965;50.660;13.226;2023-11-21T10:01:41;6.00;99.90
27224;DHT22;14965;50.660;13.226;2023-11-21T10:04:08;6.00;99.90
27224;DHT22;14965;50.660;13.226;2023-11-21T10:06:35;6.00;99.90
27224;DHT22;14965;50.660;13.226;2023-11-21T10:09:02;6.10;99.90
27224;DHT22;14965;50.660;13.226;2023-11-21T10:11:29;6.10;99.90
27224;DHT22;14965;50.660;13.226;2023-11-21T10:13:55;6.10;99.90
27224;DHT22;14965;50.660;13.226;2023-11-21T10:16:26;6.10;99.90
27224;DHT22;14965;50.660;13.226;2023-11-21T10:18:53;6.10;99.90
27224;DHT22;14965;50.660;13.226;2023-11-21T10:21:19;6.10;99.90
27224;DHT22;14965;50.660;13.226;2023-11-21T10:23:47;6.10;99.90
27224;DHT22;14965;50.660;13.226;2023-11-21T10:26:13;6.10;99.90
27224;DHT22;14965;50.660;13.226;2023-11-21T10:28:40;6.10;99.90
27224;DHT22;14965;50.660;13.226;2023-11-21T10:31:06;6.20;99.90
27224;DHT22;14965;50.660;13.226;2023-11-21T10:33:32;6.20;99.90
27224;DHT22;14965;50.660;13.226;2023-11-21T10:35:58;6.20;99.90
27224;DHT22;14965;50.660;13.226;2023-11-21T10:38:25;6.20;99.90
27224;DHT22;14965;50.660;13.226;2023-11-21T10:40:53;6.20;99.90
27224;DHT22;14965;50.660;13.226;2023-11-21T10:43:19;6.30;99.90
27224;DHT22;14965;50.660;13.226;2023-11-21T10:45:50;6.30;99.90
27224;DHT22;14965;50.660;13.226;2023-11-21T10:48:15;6.30;99.90
27224;DHT22;14965;50.660;13.226;2023-11-21T10:50:42;6.40;99.90
27224;DHT22;14965;50.660;13.226;2023-11-21T10:53:09;6.40;99.90
27224;DHT22;14965;50.660;13.226;2023-11-21T10:55:35;6.60;99.90
27224;DHT22;14965;50.660;13.226;2023-11-21T10:58:04;6.60;99.90
27224;DHT22;14965;50.660;13.226;2023-11-21T11:00:31;6.70;99.90
27224;DHT22;14965;50.660;13.226;2023-11-21T11:02:58;6.70;99.90
27224;DHT22;14965;50.660;13.226;2023-11-21T11:05:26;6.70;99.90
27224;DHT22;14965;50.660;13.226;2023-11-21T11:07:58;6.70;99.90
27224;DHT22;14965;50.660;13.226;2023-11-21T11:10:25;6.70;99.90
27224;DHT22;14965;50.660;13.226;2023-11-21T11:12:53;6.70;99.90
27224;DHT22;14965;50.660;13.226;2023-11-21T11:15:21;6.70;99.90
27224;DHT22;14965;50.660;13.226;2023-11-21T11:17:48;6.70;99.90
27224;DHT22;14965;50.660;13.226;2023-11-21T11:20:16;6.70;99.90
27224;DHT22;14965;50.660;13.226;2023-11-21T11:22:50;6.70;99.90
27224;DHT22;14965;50.660;13.226;2023-11-21T11:25:39;6.70;99.90
27224;DHT22;14965;50.660;13.226;2023-11-21T11:28:20;6.60;99.90
27224;DHT22;14965;50.660;13.226;2023-11-21T11:31:00;6.50;99.90
27224;DHT22;14965;50.660;13.226;2023-11-21T11:33:36;6.50;99.90
27224;DHT22;14965;50.660;13.226;2023-11-21T11:36:13;6.40;99.90
27224;DHT22;14965;50.660;13.226;2023-11-21T11:38:46;6.40;99.90
27224;DHT22;14965;50.660;13.226;2023-11-21T11:41:12;6.30;99.90
27224;DHT22;14965;50.660;13.226;2023-11-21T11:43:38;6.30;99.90
27224;DHT22;14965;50.660;13.226;2023-11-21T11:46:07;6.20;99.90
27224;DHT22;14965;50.660;13.226;2023-11-21T11:48:35;6.20;99.90
27224;DHT22;14965;50.660;13.226;2023-11-21T11:51:04;6.10;99.90
27224;DHT22;14965;50.660;13.226;2023-11-21T11:53:36;5.90;99.90
27224;DHT22;14965;50.660;13.226;2023-11-21T11:56:24;5.80;99.90
27224;DHT22;14965;50.660;13.226;2023-11-21T11:58:53;5.80;99.90
27224;DHT22;14965;50.660;13.226;2023-11-21T12:01:23;5.80;99.90
27224;DHT22;14965;50.660;13.226;2023-11-21T12:04:25;5.60;99.90
27224;DHT22;14965;50.660;13.226;2023-11-21T12:06:52;5.60;99.90
27224;DHT22;14965;50.660;13.226;2023-11-21T12:09:18;5.50;99.90
27224;DHT22;14965;50.660;13.226;2023-11-21T12:11:46;5.40;99.90
27224;DHT22;14965;50.660;13.226;2023-11-21T12:14:13;5.40;99.90
27224;DHT22;14965;50.660;13.226;2023-11-21T12:16:41;5.40;99.90
27224;DHT22;14965;50.660;13.226;2023-11-21T12:19:07;5.40;99.90
27224;DHT22;14965;50.660;13.226;2023-11-21T12:21:33;5.50;99.90
27224;DHT22;14965;50.660;13.226;2023-11-21T12:24:01;5.50;99.90
27224;DHT22;14965;50.660;13.226;2023-11-21T12:26:27;5.50;99.90
27224;DHT22;14965;50.660;13.226;2023-11-21T12:28:53;5.40;99.90
27224;DHT22;14965;50.660;13.226;2023-11-21T12:31:19;5.40;99.90
27224;DHT22;14965;50.660;13.226;2023-11-21T12:33:47;5.30;99.90
27224;DHT22;14965;50.660;13.226;2023-11-21T12:36:13;5.40;99.90
27224;DHT22;14965;50.660;13.226;2023-11-21T12:38:39;5.40;99.90
27224;DHT22;14965;50.660;13.226;2023-11-21T12:41:05;5.40;99.90
27224;DHT22;14965;50.660;13.226;2023-11-21T12:43:31;5.30;99.90
27224;DHT22;14965;50.660;13.226;2023-11-21T12:46:05;5.20;99.90
27224;DHT22;14965;50.660;13.226;2023-11-21T12:48:32;5.20;99.90
27224;DHT22;14965;50.660;13.226;2023-11-21T12:50:59;5.20;99.90
27224;DHT22;14965;50.660;13.226;2023-11-21T12:53:25;5.10;99.90
27224;DHT22;14965;50.660;13.226;2023-11-21T12:55:52;5.00;99.90
27224;DHT22;14965;50.660;13.226;2023-11-21T12:58:24;5.00;99.90
27224;DHT22;14965;50.660;13.226;2023-11-21T13:00:50;5.00;99.90
27224;DHT22;14965;50.660;13.226;2023-11-21T13:03:17;4.90;99.90
27224;DHT22;14965;50.660;13.226;2023-11-21T13:05:45;4.80;99.90
27224;DHT22;14965;50.660;13.226;2023-11-21T13:08:13;4.80;99.90
27224;DHT22;14965;50.660;13.226;2023-11-21T13:10:41;4.80;99.90
27224;DHT22;14965;50.660;13.226;2023-11-21T13:13:11;4.70;99.90
27224;DHT22;14965;50.660;13.226;2023-11-21T13:15:39;4.70;99.90
27224;DHT22;14965;50.660;13.226;2023-11-21T13:18:06;4.50;99.90
27224;DHT22;14965;50.660;13.226;2023-11-21T13:20:32;4.50;99.90
27224;DHT22;14965;50.660;13.226;2023-11-21T13:22:58;4.50;99.90
27224;DHT22;14965;50.660;13.226;2023-11-21T13:25:26;4.40;99.90
27224;DHT22;14965;50.660;13.226;2023-11-21T13:27:54;4.30;99.90
27224;DHT22;14965;50.660;13.226;2023-11-21T13:30:20;4.30;99.90
27224;DHT22;14965;50.660;13.226;2023-11-21T13:32:48;4.30;99.90
27224;DHT22;14965;50.660;13.226;2023-11-21T13:35:14;4.20;99.90
27224;DHT22;14965;50.660;13.226;2023-11-21T13:37:40;4.10;99.90
27224;DHT22;14965;50.660;13.226;2023-11-21T13:40:07;4.20;99.90
27224;DHT22;14965;50.660;13.226;2023-11-21T13:42:35;4.20;99.90
27224;DHT22;14965;50.660;13.226;2023-11-21T13:45:01;4.20;99.90
27224;DHT22;14965;50.660;13.226;2023-11-21T13:47:27;4.10;99.90
27224;DHT22;14965;50.660;13.226;2023-11-21T13:49:53;4.20;99.90
27224;DHT22;14965;50.660;13.226;2023-11-21T13:52:19;4.20;99.90
27224;DHT22;14965;50.660;13.226;2023-11-21T13:54:45;4.20;99.90
27224;DHT22;14965;50.660;13.226;2023-11-21T13:57:11;4.10;99.90
27224;DHT22;14965;50.660;13.226;2023-11-21T13:59:38;4.10;99.90
27224;DHT22;14965;50.660;13.226;2023-11-21T14:02:04;4.00;99.90
27224;DHT22;14965;50.660;13.226;2023-11-21T14:04:30;3.90;99.90
27224;DHT22;14965;50.660;13.226;2023-11-21T14:06:56;3.90;99.90
27224;DHT22;14965;50.660;13.226;2023-11-21T14:09:23;3.90;99.90
27224;DHT22;14965;50.660;13.226;2023-11-21T14:11:50;3.90;99.90
27224;DHT22;14965;50.660;13.226;2023-11-21T14:14:16;4.00;99.90
27224;DHT22;14965;50.660;13.226;2023-11-21T14:16:44;4.10;99.90
27224;DHT22;14965;50.660;13.226;2023-11-21T14:19:09;3.90;99.90
27224;DHT22;14965;50.660;13.226;2023-11-21T14:21:35;3.90;99.90
27224;DHT22;14965;50.660;13.226;2023-11-21T14:24:01;3.90;99.90
27224;DHT22;14965;50.660;13.226;2023-11-21T14:26:28;3.90;99.90
27224;DHT22;14965;50.660;13.226;2023-11-21T14:28:53;3.90;99.90
27224;DHT22;14965;50.660;13.226;2023-11-21T14:31:19;3.90;99.90
27224;DHT22;14965;50.660;13.226;2023-11-21T14:33:47;3.90;99.90
27224;DHT22;14965;50.660;13.226;2023-11-21T14:36:13;4.00;99.90
27224;DHT22;14965;50.660;13.226;2023-11-21T14:38:39;4.00;99.90
27224;DHT22;14965;50.660;13.226;2023-11-21T14:41:05;4.00;99.90
27224;DHT22;14965;50.660;13.226;2023-11-21T14:43:31;4.00;99.90
27224;DHT22;14965;50.660;13.226;2023-11-21T14:45:57;4.00;99.90
27224;DHT22;14965;50.660;13.226;2023-11-21T14:48:23;3.90;99.90
27224;DHT22;14965;50.660;13.226;2023-11-21T14:50:50;3.90;99.90
27224;DHT22;14965;50.660;13.226;2023-11-21T14:53:16;3.90;99.90
27224;DHT22;14965;50.660;13.226;2023-11-21T14:55:42;3.80;99.90
27224;DHT22;14965;50.660;13.226;2023-11-21T14:58:08;3.80;99.90
27224;DHT22;14965;50.660;13.226;2023-11-21T15:00:35;3.70;99.90
27224;DHT22;14965;50.660;13.226;2023-11-21T15:03:01;3.60;99.90
27224;DHT22;14965;50.660;13.226;2023-11-21T15:05:27;3.60;99.90
27224;DHT22;14965;50.660;13.226;2023-11-21T15:07:55;3.50;99.90
27224;DHT22;14965;50.660;13.226;2023-11-21T15:10:22;3.30;99.90
27224;DHT22;14965;50.660;13.226;2023-11-21T15:12:48;3.20;99.90
27224;DHT22;14965;50.660;13.226;2023-11-21T15:15:14;3.20;99.90
27224;DHT22;14965;50.660;13.226;2023-11-21T15:17:40;3.20;99.90
27224;DHT22;14965;50.660;13.226;2023-11-21T15:20:06;3.20;99.90
27224;DHT22;14965;50.660;13.226;2023-11-21T15:22:33;3.20;99.90
27224;DHT22;14965;50.660;13.226;2023-11-21T15:25:00;3.20;99.90
27224;DHT22;14965;50.660;13.226;2023-11-21T15:27:26;3.00;99.90